sensor_id;sensor_type;location;lat;lon;timestamp;temperature;humidity
10062;DHT22;5070;52.382;5.270;2023-03-23T00:01:25;17.90;88.00
10062;DHT22;5070;52.382;5.270;2023-03-23T00:03:53;17.80;87.90
10062;DHT22;5070;52.382;5.270;2023-03-23T00:06:24;17.80;87.90
10062;DHT22;5070;52.382;5.270;2023-03-23T00:08:53;17.80;87.80
10062;DHT22;5070;52.382;5.270;2023-03-23T00:11:26;17.80;87.70
10062;DHT22;5070;52.382;5.270;2023-03-23T00:13:56;17.80;87.70
10062;DHT22;5070;52.382;5.270;2023-03-23T00:16:27;17.80;87.90
10062;DHT22;5070;52.382;5.270;2023-03-23T00:18:57;17.80;87.70
10062;DHT22;5070;52.382;5.270;2023-03-23T00:21:27;17.80;87.70
10062;DHT22;5070;52.382;5.270;2023-03-23T00:23:59;17.80;87.70
10062;DHT22;5070;52.382;5.270;2023-03-23T00:26:26;17.80;87.60
10062;DHT22;5070;52.382;5.270;2023-03-23T00:28:55;17.80;87.70
10062;DHT22;5070;52.382;5.270;2023-03-23T00:31:22;17.80;87.70
10062;DHT22;5070;52.382;5.270;2023-03-23T00:33:49;17.80;87.70
10062;DHT22;5070;52.382;5.270;2023-03-23T00:36:16;17.80;87.70
10062;DHT22;5070;52.382;5.270;2023-03-23T00:38:44;17.80;87.80
10062;DHT22;5070;52.382;5.270;2023-03-23T00:41:12;17.80;87.60
10062;DHT22;5070;52.382;5.270;2023-03-23T00:43:41;17.80;87.60
10062;DHT22;5070;52.382;5.270;2023-03-23T00:46:08;17.80;87.50
10062;DHT22;5070;52.382;5.270;2023-03-23T00:48:36;17.80;87.50
10062;DHT22;5070;52.382;5.270;2023-03-23T00:51:06;17.80;87.40
10062;DHT22;5070;52.382;5.270;2023-03-23T00:53:37;17.80;87.50
10062;DHT22;5070;52.382;5.270;2023-03-23T00:56:07;17.80;87.60
10062;DHT22;5070;52.382;5.270;2023-03-23T00:58:36;17.80;87.40
10062;DHT22;5070;52.382;5.270;2023-03-23T01:01:06;17.80;87.40
10062;DHT22;5070;52.382;5.270;2023-03-23T01:03:34;17.80;87.30
10062;DHT22;5070;52.382;5.270;2023-03-23T01:06:05;17.80;87.40
10062;DHT22;5070;52.382;5.270;2023-03-23T01:08:34;17.70;87.30
10062;DHT22;5070;52.382;5.270;2023-03-23T01:11:06;17.70;87.30
10062;DHT22;5070;52.382;5.270;2023-03-23T01:13:33;17.70;87.40
10062;DHT22;5070;52.382;5.270;2023-03-23T01:16:00;17.70;87.30
10062;DHT22;5070;52.382;5.270;2023-03-23T01:18:28;17.70;87.30
10062;DHT22;5070;52.382;5.270;2023-03-23T01:20:55;17.70;87.20
10062;DHT22;5070;52.382;5.270;2023-03-23T01:23:22;17.70;87.30
10062;DHT22;5070;52.382;5.270;2023-03-23T01:25:49;17.70;87.20
10062;DHT22;5070;52.382;5.270;2023-03-23T01:28:20;17.70;87.10
10062;DHT22;5070;52.382;5.270;2023-03-23T01:30:47;17.70;87.20
10062;DHT22;5070;52.382;5.270;2023-03-23T01:33:14;17.70;87.10
10062;DHT22;5070;52.382;5.270;2023-03-23T01:35:42;17.70;87.20
10062;DHT22;5070;52.382;5.270;2023-03-23T01:38:09;17.70;87.20
10062;DHT22;5070;52.382;5.270;2023-03-23T01:40:36;17.70;87.20
10062;DHT22;5070;52.382;5.270;2023-03-23T01:43:07;17.70;87.00
10062;DHT22;5070;52.382;5.270;2023-03-23T01:45:36;17.70;87.00
10062;DHT22;5070;52.382;5.270;2023-03-23T01:48:09;17.70;87.00
10062;DHT22;5070;52.382;5.270;2023-03-23T01:50:44;17.70;87.10
10062;DHT22;5070;52.382;5.270;2023-03-23T01:53:13;17.70;87.10
10062;DHT22;5070;52.382;5.270;2023-03-23T01:55:43;17.70;87.00
10062;DHT22;5070;52.382;5.270;2023-03-23T01:58:15;17.70;87.00
10062;DHT22;5070;52.382;5.270;2023-03-23T02:00:44;17.70;87.10
10062;DHT22;5070;52.382;5.270;2023-03-23T02:03:12;17.70;87.00
10062;DHT22;5070;52.382;5.270;2023-03-23T02:05:42;17.70;87.00
10062;DHT22;5070;52.382;5.270;2023-03-23T02:08:19;17.70;87.00
10062;DHT22;5070;52.382;5.270;2023-03-23T02:10:46;17.70;87.10
10062;DHT22;5070;52.382;5.270;2023-03-23T02:13:14;17.70;87.20
10062;DHT22;5070;52.382;5.270;2023-03-23T02:15:48;17.70;87.30
10062;DHT22;5070;52.382;5.270;2023-03-23T02:18:35;17.70;87.20
10062;DHT22;5070;52.382;5.270;2023-03-23T02:21:33;17.80;87.00
10062;DHT22;5070;52.382;5.270;2023-03-23T02:24:30;17.80;87.30
10062;DHT22;5070;52.382;5.270;2023-03-23T02:27:03;17.80;87.00
10062;DHT22;5070;52.382;5.270;2023-03-23T02:29:52;17.80;86.90
10062;DHT22;5070;52.382;5.270;2023-03-23T02:32:41;17.80;86.70
10062;DHT22;5070;52.382;5.270;2023-03-23T02:35:19;17.80;86.90
10062;DHT22;5070;52.382;5.270;2023-03-23T02:37:49;17.80;86.90
10062;DHT22;5070;52.382;5.270;2023-03-23T02:40:21;17.80;86.80
10062;DHT22;5070;52.382;5.270;2023-03-23T02:42:53;17.80;86.60
10062;DHT22;5070;52.382;5.270;2023-03-23T02:45:22;17.80;86.60
10062;DHT22;5070;52.382;5.270;2023-03-23T02:47:52;17.80;86.60
10062;DHT22;5070;52.382;5.270;2023-03-23T02:50:23;17.80;86.60
10062;DHT22;5070;52.382;5.270;2023-03-23T02:52:53;17.80;86.60
10062;DHT22;5070;52.382;5.270;2023-03-23T02:55:23;17.80;86.60
10062;DHT22;5070;52.382;5.270;2023-03-23T02:57:52;17.80;86.60
10062;DHT22;5070;52.382;5.270;2023-03-23T03:00:21;17.80;86.50
10062;DHT22;5070;52.382;5.270;2023-03-23T03:02:50;17.80;86.50
10062;DHT22;5070;52.382;5.270;2023-03-23T03:05:30;17.80;86.50
10062;DHT22;5070;52.382;5.270;2023-03-23T03:08:09;17.80;86.50
10062;DHT22;5070;52.382;5.270;2023-03-23T03:10:46;17.80;86.30
10062;DHT22;5070;52.382;5.270;2023-03-23T03:13:23;17.80;86.40
10062;DHT22;5070;52.382;5.270;2023-03-23T03:15:55;17.80;86.40
10062;DHT22;5070;52.382;5.270;2023-03-23T03:18:28;17.80;86.30
10062;DHT22;5070;52.382;5.270;2023-03-23T03:21:02;17.80;86.30
10062;DHT22;5070;52.382;5.270;2023-03-23T03:23:32;17.80;86.30
10062;DHT22;5070;52.382;5.270;2023-03-23T03:26:03;17.80;86.30
10062;DHT22;5070;52.382;5.270;2023-03-23T03:28:44;17.80;86.30
10062;DHT22;5070;52.382;5.270;2023-03-23T03:31:15;17.80;86.30
10062;DHT22;5070;52.382;5.270;2023-03-23T03:33:44;17.80;86.30
10062;DHT22;5070;52.382;5.270;2023-03-23T03:36:18;17.80;86.40
10062;DHT22;5070;52.382;5.270;2023-03-23T03:38:49;17.80;86.50
10062;DHT22;5070;52.382;5.270;2023-03-23T03:41:17;17.80;86.50
10062;DHT22;5070;52.382;5.270;2023-03-23T03:43:46;17.80;86.50
10062;DHT22;5070;52.382;5.270;2023-03-23T03:46:12;17.70;86.40
10062;DHT22;5070;52.382;5.270;2023-03-23T03:48:39;17.70;86.50
10062;DHT22;5070;52.382;5.270;2023-03-23T03:51:06;17.70;86.40
10062;DHT22;5070;52.382;5.270;2023-03-23T03:53:38;17.70;86.40
10062;DHT22;5070;52.382;5.270;2023-03-23T03:56:06;17.70;86.30
10062;DHT22;5070;52.382;5.270;2023-03-23T03:58:39;17.70;86.30
10062;DHT22;5070;52.382;5.270;2023-03-23T04:01:46;17.70;86.30
10062;DHT22;5070;52.382;5.270;2023-03-23T04:04:13;17.70;86.40
10062;DHT22;5070;52.382;5.270;2023-03-23T04:06:40;17.70;86.30
10062;DHT22;5070;52.382;5.270;2023-03-23T04:09:09;17.70;86.30
10062;DHT22;5070;52.382;5.270;2023-03-23T04:11:37;17.70;86.40
10062;DHT22;5070;52.382;5.270;2023-03-23T04:14:23;17.70;86.40
10062;DHT22;5070;52.382;5.270;2023-03-23T04:16:53;17.70;86.40
10062;DHT22;5070;52.382;5.270;2023-03-23T04:19:22;17.70;86.30
10062;DHT22;5070;52.382;5.270;2023-03-23T04:21:50;17.70;86.30
10062;DHT22;5070;52.382;5.270;2023-03-23T04:24:19;17.70;86.30
10062;DHT22;5070;52.382;5.270;2023-03-23T04:26:47;17.70;86.30
10062;DHT22;5070;52.382;5.270;2023-03-23T04:29:22;17.70;86.30
10062;DHT22;5070;52.382;5.270;2023-03-23T04:32:24;17.70;86.30
10062;DHT22;5070;52.382;5.270;2023-03-23T04:34:55;17.70;86.30
10062;DHT22;5070;52.382;5.270;2023-03-23T04:37:27;17.70;86.30
10062;DHT22;5070;52.382;5.270;2023-03-23T04:40:00;17.70;86.40
10062;DHT22;5070;52.382;5.270;2023-03-23T04:42:32;17.70;86.40
10062;DHT22;5070;52.382;5.270;2023-03-23T04:45:27;17.70;86.30
10062;DHT22;5070;52.382;5.270;2023-03-23T04:47:56;17.70;86.30
10062;DHT22;5070;52.382;5.270;2023-03-23T04:50:33;17.60;86.20
10062;DHT22;5070;52.382;5.270;2023-03-23T04:53:11;17.60;86.30
10062;DHT22;5070;52.382;5.270;2023-03-23T04:55:41;17.60;86.20
10062;DHT22;5070;52.382;5.270;2023-03-23T04:58:11;17.60;86.30
10062;DHT22;5070;52.382;5.270;2023-03-23T05:01:15;17.60;86.30
10062;DHT22;5070;52.382;5.270;2023-03-23T05:04:04;17.60;86.30
10062;DHT22;5070;52.382;5.270;2023-03-23T05:06:32;17.60;86.30
10062;DHT22;5070;52.382;5.270;2023-03-23T05:09:04;17.60;86.30
10062;DHT22;5070;52.382;5.270;2023-03-23T05:11:32;17.60;86.30
10062;DHT22;5070;52.382;5.270;2023-03-23T05:13:59;17.60;86.40
10062;DHT22;5070;52.382;5.270;2023-03-23T05:16:26;17.60;86.30
10062;DHT22;5070;52.382;5.270;2023-03-23T05:18:54;17.60;86.20
10062;DHT22;5070;52.382;5.270;2023-03-23T05:21:23;17.60;86.30
10062;DHT22;5070;52.382;5.270;2023-03-23T05:23:53;17.60;86.30
10062;DHT22;5070;52.382;5.270;2023-03-23T05:26:22;17.60;86.30
10062;DHT22;5070;52.382;5.270;2023-03-23T05:28:53;17.60;86.30
10062;DHT22;5070;52.382;5.270;2023-03-23T05:31:33;17.60;86.30
10062;DHT22;5070;52.382;5.270;2023-03-23T05:34:01;17.50;86.20
10062;DHT22;5070;52.382;5.270;2023-03-23T05:36:39;17.50;86.10
10062;DHT22;5070;52.382;5.270;2023-03-23T05:39:11;17.60;86.20
10062;DHT22;5070;52.382;5.270;2023-03-23T05:42:06;17.50;86.10
10062;DHT22;5070;52.382;5.270;2023-03-23T05:45:06;17.60;86.20
10062;DHT22;5070;52.382;5.270;2023-03-23T05:47:35;17.60;86.20
10062;DHT22;5070;52.382;5.270;2023-03-23T05:50:09;17.60;86.20
10062;DHT22;5070;52.382;5.270;2023-03-23T05:52:37;17.60;86.20
10062;DHT22;5070;52.382;5.270;2023-03-23T05:55:08;17.60;86.20
10062;DHT22;5070;52.382;5.270;2023-03-23T05:57:38;17.60;86.20
10062;DHT22;5070;52.382;5.270;2023-03-23T06:00:20;17.60;86.30
10062;DHT22;5070;52.382;5.270;2023-03-23T06:02:55;17.60;86.20
10062;DHT22;5070;52.382;5.270;2023-03-23T06:05:32;17.60;86.30
10062;DHT22;5070;52.382;5.270;2023-03-23T06:07:59;17.70;86.50
10062;DHT22;5070;52.382;5.270;2023-03-23T06:10:27;17.70;86.30
10062;DHT22;5070;52.382;5.270;2023-03-23T06:13:00;17.70;86.30
10062;DHT22;5070;52.382;5.270;2023-03-23T06:15:43;17.70;86.50
10062;DHT22;5070;52.382;5.270;2023-03-23T06:18:25;17.70;86.90
10062;DHT22;5070;52.382;5.270;2023-03-23T06:21:09;17.70;86.70
10062;DHT22;5070;52.382;5.270;2023-03-23T06:23:46;17.70;86.60
10062;DHT22;5070;52.382;5.270;2023-03-23T06:26:18;17.70;87.00
10062;DHT22;5070;52.382;5.270;2023-03-23T06:28:51;17.70;87.10
10062;DHT22;5070;52.382;5.270;2023-03-23T06:31:19;17.70;86.70
10062;DHT22;5070;52.382;5.270;2023-03-23T06:33:47;17.70;86.50
10062;DHT22;5070;52.382;5.270;2023-03-23T06:36:37;17.70;86.30
10062;DHT22;5070;52.382;5.270;2023-03-23T06:39:10;17.70;86.40
10062;DHT22;5070;52.382;5.270;2023-03-23T06:42:11;17.70;86.60
10062;DHT22;5070;52.382;5.270;2023-03-23T06:44:44;17.70;86.90
10062;DHT22;5070;52.382;5.270;2023-03-23T06:47:13;17.70;87.00
10062;DHT22;5070;52.382;5.270;2023-03-23T06:49:45;17.70;87.10
10062;DHT22;5070;52.382;5.270;2023-03-23T06:52:24;17.70;87.40
10062;DHT22;5070;52.382;5.270;2023-03-23T06:54:52;17.70;87.80
10062;DHT22;5070;52.382;5.270;2023-03-23T06:57:20;17.80;88.80
10062;DHT22;5070;52.382;5.270;2023-03-23T06:59:50;17.80;88.80
10062;DHT22;5070;52.382;5.270;2023-03-23T07:02:18;17.80;89.00
10062;DHT22;5070;52.382;5.270;2023-03-23T07:04:49;17.80;89.40
10062;DHT22;5070;52.382;5.270;2023-03-23T07:07:21;17.80;89.30
10062;DHT22;5070;52.382;5.270;2023-03-23T07:09:53;17.80;89.60
10062;DHT22;5070;52.382;5.270;2023-03-23T07:12:23;17.80;89.60
10062;DHT22;5070;52.382;5.270;2023-03-23T07:14:51;17.80;89.70
10062;DHT22;5070;52.382;5.270;2023-03-23T07:17:19;17.90;90.00
10062;DHT22;5070;52.382;5.270;2023-03-23T07:20:10;17.90;90.00
10062;DHT22;5070;52.382;5.270;2023-03-23T07:22:38;17.90;89.00
10062;DHT22;5070;52.382;5.270;2023-03-23T07:25:18;17.90;89.20
10062;DHT22;5070;52.382;5.270;2023-03-23T07:27:53;17.90;89.30
10062;DHT22;5070;52.382;5.270;2023-03-23T07:30:21;17.90;89.50
10062;DHT22;5070;52.382;5.270;2023-03-23T07:32:49;17.90;89.70
10062;DHT22;5070;52.382;5.270;2023-03-23T07:35:25;18.00;90.00
10062;DHT22;5070;52.382;5.270;2023-03-23T07:38:02;18.00;90.00
10062;DHT22;5070;52.382;5.270;2023-03-23T07:40:30;18.00;90.00
10062;DHT22;5070;52.382;5.270;2023-03-23T07:43:03;18.00;88.90
10062;DHT22;5070;52.382;5.270;2023-03-23T07:45:52;18.00;89.90
10062;DHT22;5070;52.382;5.270;2023-03-23T07:48:23;18.00;88.80
10062;DHT22;5070;52.382;5.270;2023-03-23T07:50:51;18.00;90.20
10062;DHT22;5070;52.382;5.270;2023-03-23T07:53:18;18.00;89.30
10062;DHT22;5070;52.382;5.270;2023-03-23T07:55:54;18.00;89.60
10062;DHT22;5070;52.382;5.270;2023-03-23T07:58:41;18.10;90.10
10062;DHT22;5070;52.382;5.270;2023-03-23T08:01:10;18.10;90.20
10062;DHT22;5070;52.382;5.270;2023-03-23T08:03:40;18.10;90.20
10062;DHT22;5070;52.382;5.270;2023-03-23T08:06:16;18.10;90.10
10062;DHT22;5070;52.382;5.270;2023-03-23T08:08:51;18.10;90.20
10062;DHT22;5070;52.382;5.270;2023-03-23T08:11:47;18.10;90.30
10062;DHT22;5070;52.382;5.270;2023-03-23T08:14:49;18.10;90.10
10062;DHT22;5070;52.382;5.270;2023-03-23T08:17:49;18.10;90.10
10062;DHT22;5070;52.382;5.270;2023-03-23T08:20:38;18.10;90.10
10062;DHT22;5070;52.382;5.270;2023-03-23T08:23:18;18.10;90.20
10062;DHT22;5070;52.382;5.270;2023-03-23T08:26:09;18.20;90.20
10062;DHT22;5070;52.382;5.270;2023-03-23T08:28:51;18.20;90.10
10062;DHT22;5070;52.382;5.270;2023-03-23T08:31:57;18.20;89.90
10062;DHT22;5070;52.382;5.270;2023-03-23T08:34:44;18.20;89.70
10062;DHT22;5070;52.382;5.270;2023-03-23T08:37:46;18.20;89.70
10062;DHT22;5070;52.382;5.270;2023-03-23T08:40:47;18.20;90.20
10062;DHT22;5070;52.382;5.270;2023-03-23T08:43:35;18.20;90.30
10062;DHT22;5070;52.382;5.270;2023-03-23T08:46:34;18.20;90.40
10062;DHT22;5070;52.382;5.270;2023-03-23T08:49:37;18.20;90.50
10062;DHT22;5070;52.382;5.270;2023-03-23T08:52:35;18.20;90.60
10062;DHT22;5070;52.382;5.270;2023-03-23T08:55:42;18.20;90.50
10062;DHT22;5070;52.382;5.270;2023-03-23T08:58:21;18.20;90.30
10062;DHT22;5070;52.382;5.270;2023-03-23T09:01:27;18.30;90.70
10062;DHT22;5070;52.382;5.270;2023-03-23T09:04:12;18.30;90.20
10062;DHT22;5070;52.382;5.270;2023-03-23T09:06:55;18.30;89.60
10062;DHT22;5070;52.382;5.270;2023-03-23T09:09:23;18.30;88.40
10062;DHT22;5070;52.382;5.270;2023-03-23T09:11:52;18.30;88.80
10062;DHT22;5070;52.382;5.270;2023-03-23T09:14:20;18.30;89.20
10062;DHT22;5070;52.382;5.270;2023-03-23T09:16:47;18.40;89.10
10062;DHT22;5070;52.382;5.270;2023-03-23T09:19:14;18.40;87.90
10062;DHT22;5070;52.382;5.270;2023-03-23T09:21:41;18.40;86.70
10062;DHT22;5070;52.382;5.270;2023-03-23T09:24:08;18.40;86.90
10062;DHT22;5070;52.382;5.270;2023-03-23T09:26:35;18.40;87.20
10062;DHT22;5070;52.382;5.270;2023-03-23T09:29:03;18.40;86.40
10062;DHT22;5070;52.382;5.270;2023-03-23T09:31:30;18.40;86.60
10062;DHT22;5070;52.382;5.270;2023-03-23T09:33:57;18.40;86.60
10062;DHT22;5070;52.382;5.270;2023-03-23T09:36:25;18.40;87.40
10062;DHT22;5070;52.382;5.270;2023-03-23T09:38:55;18.40;86.50
10062;DHT22;5070;52.382;5.270;2023-03-23T09:44:51;18.50;86.80
10062;DHT22;5070;52.382;5.270;2023-03-23T09:47:25;18.50;86.30
10062;DHT22;5070;52.382;5.270;2023-03-23T09:50:02;18.50;86.30
10062;DHT22;5070;52.382;5.270;2023-03-23T09:52:35;18.50;86.30
10062;DHT22;5070;52.382;5.270;2023-03-23T09:55:04;18.50;86.20
10062;DHT22;5070;52.382;5.270;2023-03-23T09:57:35;18.60;86.20
10062;DHT22;5070;52.382;5.270;2023-03-23T10:00:10;18.60;86.40
10062;DHT22;5070;52.382;5.270;2023-03-23T10:02:46;18.60;86.40
10062;DHT22;5070;52.382;5.270;2023-03-23T10:05:32;18.60;86.40
10062;DHT22;5070;52.382;5.270;2023-03-23T10:08:01;18.60;86.40
10062;DHT22;5070;52.382;5.270;2023-03-23T10:10:39;18.60;86.90
10062;DHT22;5070;52.382;5.270;2023-03-23T10:13:14;18.60;86.50
10062;DHT22;5070;52.382;5.270;2023-03-23T10:15:46;18.70;86.80
10062;DHT22;5070;52.382;5.270;2023-03-23T10:18:17;18.70;86.70
10062;DHT22;5070;52.382;5.270;2023-03-23T10:20:48;18.70;87.30
10062;DHT22;5070;52.382;5.270;2023-03-23T10:23:46;18.70;86.70
10062;DHT22;5070;52.382;5.270;2023-03-23T10:26:26;18.70;86.60
10062;DHT22;5070;52.382;5.270;2023-03-23T10:28:58;18.70;86.50
10062;DHT22;5070;52.382;5.270;2023-03-23T10:31:31;18.70;86.70
10062;DHT22;5070;52.382;5.270;2023-03-23T10:34:03;18.70;86.80
10062;DHT22;5070;52.382;5.270;2023-03-23T10:36:35;18.80;86.90
10062;DHT22;5070;52.382;5.270;2023-03-23T10:39:09;18.80;87.00
10062;DHT22;5070;52.382;5.270;2023-03-23T10:41:37;18.80;87.00
10062;DHT22;5070;52.382;5.270;2023-03-23T10:44:10;18.80;87.00
10062;DHT22;5070;52.382;5.270;2023-03-23T10:46:44;18.80;87.10
10062;DHT22;5070;52.382;5.270;2023-03-23T10:49:17;18.80;87.00
10062;DHT22;5070;52.382;5.270;2023-03-23T10:51:52;18.80;87.10
10062;DHT22;5070;52.382;5.270;2023-03-23T10:54:26;18.80;87.10
10062;DHT22;5070;52.382;5.270;2023-03-23T10:56:54;18.80;87.10
10062;DHT22;5070;52.382;5.270;2023-03-23T10:59:26;18.90;87.20
10062;DHT22;5070;52.382;5.270;2023-03-23T11:01:57;18.90;87.20
10062;DHT22;5070;52.382;5.270;2023-03-23T11:04:25;18.90;87.20
10062;DHT22;5070;52.382;5.270;2023-03-23T11:06:54;18.90;87.30
10062;DHT22;5070;52.382;5.270;2023-03-23T11:09:34;18.90;87.30
10062;DHT22;5070;52.382;5.270;2023-03-23T11:12:02;18.90;87.30
10062;DHT22;5070;52.382;5.270;2023-03-23T11:14:31;18.90;88.00
10062;DHT22;5070;52.382;5.270;2023-03-23T11:17:03;18.90;87.20
10062;DHT22;5070;52.382;5.270;2023-03-23T11:19:33;18.90;87.30
10062;DHT22;5070;52.382;5.270;2023-03-23T11:22:07;18.90;87.20
10062;DHT22;5070;52.382;5.270;2023-03-23T11:24:37;18.90;87.30
10062;DHT22;5070;52.382;5.270;2023-03-23T11:27:08;18.90;87.30
10062;DHT22;5070;52.382;5.270;2023-03-23T11:29:47;18.90;87.30
10062;DHT22;5070;52.382;5.270;2023-03-23T11:32:17;18.90;88.00
10062;DHT22;5070;52.382;5.270;2023-03-23T11:34:45;18.90;87.30
10062;DHT22;5070;52.382;5.270;2023-03-23T11:37:15;18.90;87.30
10062;DHT22;5070;52.382;5.270;2023-03-23T11:39:48;19.00;87.30
10062;DHT22;5070;52.382;5.270;2023-03-23T11:42:20;18.90;87.30
10062;DHT22;5070;52.382;5.270;2023-03-23T11:44:47;19.00;87.40
10062;DHT22;5070;52.382;5.270;2023-03-23T11:47:21;19.00;87.30
10062;DHT22;5070;52.382;5.270;2023-03-23T11:49:55;19.00;87.40
10062;DHT22;5070;52.382;5.270;2023-03-23T11:52:29;19.00;87.40
10062;DHT22;5070;52.382;5.270;2023-03-23T11:55:03;19.00;87.40
10062;DHT22;5070;52.382;5.270;2023-03-23T11:57:35;19.00;87.40
10062;DHT22;5070;52.382;5.270;2023-03-23T12:00:10;19.00;87.30
10062;DHT22;5070;52.382;5.270;2023-03-23T12:05:34;19.00;87.40
10062;DHT22;5070;52.382;5.270;2023-03-23T12:08:25;19.00;87.40
10062;DHT22;5070;52.382;5.270;2023-03-23T12:11:07;19.00;87.40
10062;DHT22;5070;52.382;5.270;2023-03-23T12:13:46;19.00;87.40
10062;DHT22;5070;52.382;5.270;2023-03-23T12:16:25;19.00;87.40
10062;DHT22;5070;52.382;5.270;2023-03-23T12:19:01;19.00;87.50
10062;DHT22;5070;52.382;5.270;2023-03-23T12:21:39;19.00;87.40
10062;DHT22;5070;52.382;5.270;2023-03-23T12:24:16;19.00;87.60
10062;DHT22;5070;52.382;5.270;2023-03-23T12:26:49;19.00;87.70
10062;DHT22;5070;52.382;5.270;2023-03-23T12:29:35;19.00;87.60
10062;DHT22;5070;52.382;5.270;2023-03-23T12:32:23;19.00;87.90
10062;DHT22;5070;52.382;5.270;2023-03-23T12:35:00;19.00;88.40
10062;DHT22;5070;52.382;5.270;2023-03-23T12:37:40;19.00;89.10
10062;DHT22;5070;52.382;5.270;2023-03-23T12:40:23;19.00;88.50
10062;DHT22;5070;52.382;5.270;2023-03-23T12:42:56;19.00;88.70
10062;DHT22;5070;52.382;5.270;2023-03-23T12:45:49;19.00;89.40
10062;DHT22;5070;52.382;5.270;2023-03-23T12:48:21;19.00;89.80
10062;DHT22;5070;52.382;5.270;2023-03-23T12:51:08;19.00;90.00
10062;DHT22;5070;52.382;5.270;2023-03-23T12:53:43;19.00;89.80
10062;DHT22;5070;52.382;5.270;2023-03-23T12:56:16;19.00;89.50
10062;DHT22;5070;52.382;5.270;2023-03-23T12:58:46;19.00;89.80
10062;DHT22;5070;52.382;5.270;2023-03-23T13:01:17;19.00;89.40
10062;DHT22;5070;52.382;5.270;2023-03-23T13:03:51;19.00;88.70
10062;DHT22;5070;52.382;5.270;2023-03-23T13:06:25;18.90;88.60
10062;DHT22;5070;52.382;5.270;2023-03-23T13:08:58;19.00;90.00
10062;DHT22;5070;52.382;5.270;2023-03-23T13:11:31;19.00;90.00
10062;DHT22;5070;52.382;5.270;2023-03-23T13:14:08;19.00;89.80
10062;DHT22;5070;52.382;5.270;2023-03-23T13:16:41;18.90;89.60
10062;DHT22;5070;52.382;5.270;2023-03-23T13:19:16;19.00;89.50
10062;DHT22;5070;52.382;5.270;2023-03-23T13:21:52;19.00;89.40
10062;DHT22;5070;52.382;5.270;2023-03-23T13:24:26;18.90;89.10
10062;DHT22;5070;52.382;5.270;2023-03-23T13:26:58;19.00;88.60
10062;DHT22;5070;52.382;5.270;2023-03-23T13:29:27;19.00;88.30
10062;DHT22;5070;52.382;5.270;2023-03-23T13:32:10;19.00;88.20
10062;DHT22;5070;52.382;5.270;2023-03-23T13:34:39;19.00;87.90
10062;DHT22;5070;52.382;5.270;2023-03-23T13:37:11;19.00;87.40
10062;DHT22;5070;52.382;5.270;2023-03-23T13:39:49;19.00;87.30
10062;DHT22;5070;52.382;5.270;2023-03-23T13:42:20;19.00;87.20
10062;DHT22;5070;52.382;5.270;2023-03-23T13:45:07;19.00;87.20
10062;DHT22;5070;52.382;5.270;2023-03-23T13:47:38;19.00;87.20
10062;DHT22;5070;52.382;5.270;2023-03-23T13:50:11;19.00;87.10
10062;DHT22;5070;52.382;5.270;2023-03-23T13:52:50;19.10;87.10
10062;DHT22;5070;52.382;5.270;2023-03-23T13:55:29;19.10;87.20
10062;DHT22;5070;52.382;5.270;2023-03-23T13:57:57;19.10;87.10
10062;DHT22;5070;52.382;5.270;2023-03-23T14:00:37;19.10;87.20
10062;DHT22;5070;52.382;5.270;2023-03-23T14:03:14;19.10;87.20
10062;DHT22;5070;52.382;5.270;2023-03-23T14:05:42;19.10;87.20
10062;DHT22;5070;52.382;5.270;2023-03-23T14:08:22;19.10;87.10
10062;DHT22;5070;52.382;5.270;2023-03-23T14:10:52;19.10;87.10
10062;DHT22;5070;52.382;5.270;2023-03-23T14:13:25;19.10;87.10
10062;DHT22;5070;52.382;5.270;2023-03-23T14:15:58;19.10;87.10
10062;DHT22;5070;52.382;5.270;2023-03-23T14:18:30;19.10;87.10
10062;DHT22;5070;52.382;5.270;2023-03-23T14:20:58;19.10;87.10
10062;DHT22;5070;52.382;5.270;2023-03-23T14:23:27;19.10;87.10
10062;DHT22;5070;52.382;5.270;2023-03-23T14:25:55;19.10;87.10
10062;DHT22;5070;52.382;5.270;2023-03-23T14:28:26;19.10;87.00
10062;DHT22;5070;52.382;5.270;2023-03-23T14:30:54;19.10;87.10
10062;DHT22;5070;52.382;5.270;2023-03-23T14:33:25;19.20;87.10
10062;DHT22;5070;52.382;5.270;2023-03-23T14:35:52;19.20;87.10
10062;DHT22;5070;52.382;5.270;2023-03-23T14:38:21;19.20;87.10
10062;DHT22;5070;52.382;5.270;2023-03-23T14:40:51;19.20;87.10
10062;DHT22;5070;52.382;5.270;2023-03-23T14:43:20;19.20;86.90
10062;DHT22;5070;52.382;5.270;2023-03-23T14:45:54;19.20;86.90
10062;DHT22;5070;52.382;5.270;2023-03-23T14:48:21;19.20;87.00
10062;DHT22;5070;52.382;5.270;2023-03-23T14:50:52;19.20;87.00
10062;DHT22;5070;52.382;5.270;2023-03-23T14:53:23;19.20;87.00
10062;DHT22;5070;52.382;5.270;2023-03-23T14:55:54;19.20;86.90
10062;DHT22;5070;52.382;5.270;2023-03-23T14:58:23;19.30;86.90
10062;DHT22;5070;52.382;5.270;2023-03-23T15:00:54;19.30;86.90
10062;DHT22;5070;52.382;5.270;2023-03-23T15:03:23;19.30;87.00
10062;DHT22;5070;52.382;5.270;2023-03-23T15:05:53;19.30;87.10
10062;DHT22;5070;52.382;5.270;2023-03-23T15:08:24;19.30;87.10
10062;DHT22;5070;52.382;5.270;2023-03-23T15:11:03;19.40;87.20
10062;DHT22;5070;52.382;5.270;2023-03-23T15:13:31;19.40;87.30
10062;DHT22;5070;52.382;5.270;2023-03-23T15:16:03;19.40;87.20
10062;DHT22;5070;52.382;5.270;2023-03-23T15:18:33;19.40;87.10
10062;DHT22;5070;52.382;5.270;2023-03-23T15:21:09;19.40;87.20
10062;DHT22;5070;52.382;5.270;2023-03-23T15:23:41;19.40;87.30
10062;DHT22;5070;52.382;5.270;2023-03-23T15:26:32;19.40;87.30
10062;DHT22;5070;52.382;5.270;2023-03-23T15:29:12;19.40;87.30
10062;DHT22;5070;52.382;5.270;2023-03-23T15:31:40;19.40;87.40
10062;DHT22;5070;52.382;5.270;2023-03-23T15:34:16;19.40;87.40
10062;DHT22;5070;52.382;5.270;2023-03-23T15:36:44;19.40;87.40
10062;DHT22;5070;52.382;5.270;2023-03-23T15:39:12;19.40;87.40
10062;DHT22;5070;52.382;5.270;2023-03-23T15:41:48;19.40;87.40
10062;DHT22;5070;52.382;5.270;2023-03-23T15:44:27;19.40;87.60
10062;DHT22;5070;52.382;5.270;2023-03-23T15:47:12;19.40;87.40
10062;DHT22;5070;52.382;5.270;2023-03-23T15:49:41;19.40;87.50
10062;DHT22;5070;52.382;5.270;2023-03-23T15:52:10;19.50;87.50
10062;DHT22;5070;52.382;5.270;2023-03-23T15:54:37;19.50;87.50
10062;DHT22;5070;52.382;5.270;2023-03-23T15:57:10;19.50;87.60
10062;DHT22;5070;52.382;5.270;2023-03-23T15:59:37;19.50;87.60
10062;DHT22;5070;52.382;5.270;2023-03-23T16:02:05;19.40;87.50
10062;DHT22;5070;52.382;5.270;2023-03-23T16:04:33;19.40;87.60
10062;DHT22;5070;52.382;5.270;2023-03-23T16:07:01;19.50;87.60
10062;DHT22;5070;52.382;5.270;2023-03-23T16:09:44;19.50;87.40
10062;DHT22;5070;52.382;5.270;2023-03-23T16:12:13;19.50;87.40
10062;DHT22;5070;52.382;5.270;2023-03-23T16:14:41;19.50;87.50
10062;DHT22;5070;52.382;5.270;2023-03-23T16:17:11;19.50;87.40
10062;DHT22;5070;52.382;5.270;2023-03-23T16:19:43;19.50;87.20
10062;DHT22;5070;52.382;5.270;2023-03-23T16:22:13;19.50;87.40
10062;DHT22;5070;52.382;5.270;2023-03-23T16:24:44;19.50;87.20
10062;DHT22;5070;52.382;5.270;2023-03-23T16:27:17;19.50;87.10
10062;DHT22;5070;52.382;5.270;2023-03-23T16:29:47;19.50;87.20
10062;DHT22;5070;52.382;5.270;2023-03-23T16:32:29;19.50;87.20
10062;DHT22;5070;52.382;5.270;2023-03-23T16:34:58;19.40;86.90